sensor_id;sensor_type;location;lat;lon;timestamp;pressure;altitude;pressure_sealevel;temperature;humidity
7050;BME280;22263;52.260;10.548;2022-08-19T00:01:59;100097.66;;;21.62;100.00
7050;BME280;22263;52.260;10.548;2022-08-19T00:04:31;100100.00;;;21.63;100.00
7050;BME280;22263;52.260;10.548;2022-08-19T00:07:04;100097.16;;;21.63;100.00
7050;BME280;22263;52.260;10.548;2022-08-19T00:09:34;100093.28;;;21.61;100.00
7050;BME280;22263;52.260;10.548;2022-08-19T00:12:04;100099.06;;;21.66;100.00
7050;BME280;22263;52.260;10.548;2022-08-19T00:14:38;100092.66;;;21.66;100.00
7050;BME280;22263;52.260;10.548;2022-08-19T00:17:09;100101.25;;;21.62;100.00
7050;BME280;22263;52.260;10.548;2022-08-19T00:19:39;100107.50;;;21.57;100.00
7050;BME280;22263;52.260;10.548;2022-08-19T00:22:08;100114.50;;;21.53;100.00
7050;BME280;22263;52.260;10.548;2022-08-19T00:24:38;100108.22;;;21.49;100.00
7050;BME280;22263;52.260;10.548;2022-08-19T00:27:16;100104.28;;;21.37;100.00
7050;BME280;22263;52.260;10.548;2022-08-19T00:29:54;100105.50;;;21.36;100.00
7050;BME280;22263;52.260;10.548;2022-08-19T00:32:25;100112.06;;;21.33;100.00
7050;BME280;22263;52.260;10.548;2022-08-19T00:34:56;100113.31;;;21.32;100.00
7050;BME280;22263;52.260;10.548;2022-08-19T00:37:26;100124.72;;;21.28;100.00
7050;BME280;22263;52.260;10.548;2022-08-19T00:39:56;100117.19;;;21.25;100.00
7050;BME280;22263;52.260;10.548;2022-08-19T00:42:26;100122.50;;;21.23;100.00
7050;BME280;22263;52.260;10.548;2022-08-19T00:45:00;100114.66;;;21.18;100.00
7050;BME280;22263;52.260;10.548;2022-08-19T00:47:29;100111.75;;;21.31;100.00
7050;BME280;22263;52.260;10.548;2022-08-19T00:50:00;100103.09;;;21.25;100.00
7050;BME280;22263;52.260;10.548;2022-08-19T00:52:33;100100.78;;;21.24;100.00
7050;BME280;22263;52.260;10.548;2022-08-19T00:55:05;100100.34;;;21.35;100.00
7050;BME280;22263;52.260;10.548;2022-08-19T00:57:40;100096.28;;;21.36;100.00
7050;BME280;22263;52.260;10.548;2022-08-19T01:00:17;100103.59;;;21.24;100.00
7050;BME280;22263;52.260;10.548;2022-08-19T01:02:47;100096.53;;;21.19;100.00
7050;BME280;22263;52.260;10.548;2022-08-19T01:05:21;100086.72;;;21.24;100.00
7050;BME280;22263;52.260;10.548;2022-08-19T01:07:51;100097.63;;;21.22;100.00
7050;BME280;22263;52.260;10.548;2022-08-19T01:10:24;100089.34;;;21.18;100.00
7050;BME280;22263;52.260;10.548;2022-08-19T01:12:59;100091.28;;;21.09;100.00
7050;BME280;22263;52.260;10.548;2022-08-19T01:15:35;100098.28;;;21.04;100.00
7050;BME280;22263;52.260;10.548;2022-08-19T01:18:10;100097.69;;;21.09;100.00
7050;BME280;22263;52.260;10.548;2022-08-19T01:20:41;100092.97;;;21.06;100.00
7050;BME280;22263;52.260;10.548;2022-08-19T01:23:14;100096.72;;;21.03;100.00
7050;BME280;22263;52.260;10.548;2022-08-19T01:25:47;100089.53;;;21.02;100.00
7050;BME280;22263;52.260;10.548;2022-08-19T01:28:19;100092.94;;;20.97;100.00
7050;BME280;22263;52.260;10.548;2022-08-19T01:31:06;100096.13;;;20.86;100.00
7050;BME280;22263;52.260;10.548;2022-08-19T01:33:54;100090.84;;;20.88;100.00
7050;BME280;22263;52.260;10.548;2022-08-19T01:36:27;100086.47;;;20.87;100.00
7050;BME280;22263;52.260;10.548;2022-08-19T01:39:01;100084.63;;;20.94;100.00
7050;BME280;22263;52.260;10.548;2022-08-19T01:41:31;100090.34;;;20.81;100.00
7050;BME280;22263;52.260;10.548;2022-08-19T01:44:02;100096.06;;;20.77;100.00
7050;BME280;22263;52.260;10.548;2022-08-19T01:46:45;100080.94;;;20.75;100.00
7050;BME280;22263;52.260;10.548;2022-08-19T01:49:19;100080.00;;;20.78;100.00
7050;BME280;22263;52.260;10.548;2022-08-19T01:51:50;100065.81;;;20.81;100.00
7050;BME280;22263;52.260;10.548;2022-08-19T01:54:23;100068.25;;;20.70;100.00
7050;BME280;22263;52.260;10.548;2022-08-19T01:56:58;100070.44;;;20.54;100.00
7050;BME280;22263;52.260;10.548;2022-08-19T01:59:30;100080.66;;;20.60;100.00
7050;BME280;22263;52.260;10.548;2022-08-19T02:02:00;100084.25;;;20.61;100.00
7050;BME280;22263;52.260;10.548;2022-08-19T02:04:29;100069.63;;;20.66;100.00
7050;BME280;22263;52.260;10.548;2022-08-19T02:06:59;100066.81;;;20.66;100.00
7050;BME280;22263;52.260;10.548;2022-08-19T02:09:33;100065.88;;;20.69;100.00
7050;BME280;22263;52.260;10.548;2022-08-19T02:12:03;100078.19;;;20.62;100.00
7050;BME280;22263;52.260;10.548;2022-08-19T02:14:34;100081.31;;;20.64;100.00
7050;BME280;22263;52.260;10.548;2022-08-19T02:17:04;100080.88;;;20.66;100.00
7050;BME280;22263;52.260;10.548;2022-08-19T02:19:34;100082.31;;;20.70;100.00
7050;BME280;22263;52.260;10.548;2022-08-19T02:22:06;100079.88;;;20.60;100.00
7050;BME280;22263;52.260;10.548;2022-08-19T02:24:38;100083.03;;;20.62;100.00
7050;BME280;22263;52.260;10.548;2022-08-19T02:27:11;100072.56;;;20.62;100.00
7050;BME280;22263;52.260;10.548;2022-08-19T02:29:40;100073.91;;;20.58;100.00
7050;BME280;22263;52.260;10.548;2022-08-19T02:32:10;100071.19;;;20.45;100.00
7050;BME280;22263;52.260;10.548;2022-08-19T02:34:40;100069.81;;;20.50;100.00
7050;BME280;22263;52.260;10.548;2022-08-19T02:37:10;100072.19;;;20.38;100.00
7050;BME280;22263;52.260;10.548;2022-08-19T02:40:04;100067.28;;;20.30;100.00
7050;BME280;22263;52.260;10.548;2022-08-19T02:42:38;100070.06;;;20.30;100.00
7050;BME280;22263;52.260;10.548;2022-08-19T02:45:09;100067.38;;;20.39;100.00
7050;BME280;22263;52.260;10.548;2022-08-19T02:47:39;100062.81;;;20.32;100.00
7050;BME280;22263;52.260;10.548;2022-08-19T02:50:09;100069.88;;;20.24;100.00
7050;BME280;22263;52.260;10.548;2022-08-19T02:55:11;100070.94;;;20.05;100.00
7050;BME280;22263;52.260;10.548;2022-08-19T02:57:41;100060.97;;;20.04;100.00
7050;BME280;22263;52.260;10.548;2022-08-19T03:00:12;100073.56;;;19.99;100.00
7050;BME280;22263;52.260;10.548;2022-08-19T03:02:41;100074.31;;;20.00;100.00
7050;BME280;22263;52.260;10.548;2022-08-19T03:05:11;100078.41;;;19.99;100.00
7050;BME280;22263;52.260;10.548;2022-08-19T03:07:40;100077.03;;;19.91;100.00
7050;BME280;22263;52.260;10.548;2022-08-19T03:10:13;100078.41;;;19.86;100.00
7050;BME280;22263;52.260;10.548;2022-08-19T03:12:42;100076.50;;;19.83;100.00
7050;BME280;22263;52.260;10.548;2022-08-19T03:15:13;100083.91;;;19.90;100.00
7050;BME280;22263;52.260;10.548;2022-08-19T03:17:42;100092.44;;;19.86;100.00
7050;BME280;22263;52.260;10.548;2022-08-19T03:20:12;100099.50;;;19.91;100.00
7050;BME280;22263;52.260;10.548;2022-08-19T03:22:41;100107.72;;;19.85;100.00
7050;BME280;22263;52.260;10.548;2022-08-19T03:25:14;100100.75;;;19.90;100.00
7050;BME280;22263;52.260;10.548;2022-08-19T03:27:43;100097.25;;;19.86;100.00
7050;BME280;22263;52.260;10.548;2022-08-19T03:30:15;100093.31;;;19.96;100.00
7050;BME280;22263;52.260;10.548;2022-08-19T03:32:49;100091.78;;;19.95;100.00
7050;BME280;22263;52.260;10.548;2022-08-19T03:35:22;100095.59;;;19.88;100.00
7050;BME280;22263;52.260;10.548;2022-08-19T03:37:52;100099.09;;;19.80;100.00
7050;BME280;22263;52.260;10.548;2022-08-19T03:40:25;100106.94;;;19.72;100.00
7050;BME280;22263;52.260;10.548;2022-08-19T03:42:56;100114.13;;;19.73;100.00
7050;BME280;22263;52.260;10.548;2022-08-19T03:45:26;100110.75;;;19.78;100.00
7050;BME280;22263;52.260;10.548;2022-08-19T03:47:56;100101.22;;;19.76;100.00
7050;BME280;22263;52.260;10.548;2022-08-19T03:50:25;100098.75;;;19.78;100.00
7050;BME280;22263;52.260;10.548;2022-08-19T03:52:55;100099.56;;;19.66;100.00
7050;BME280;22263;52.260;10.548;2022-08-19T03:55:27;100104.91;;;19.73;100.00
7050;BME280;22263;52.260;10.548;2022-08-19T03:57:56;100104.59;;;19.71;100.00
7050;BME280;22263;52.260;10.548;2022-08-19T04:00:26;100099.44;;;19.69;100.00
7050;BME280;22263;52.260;10.548;2022-08-19T04:02:55;100092.69;;;19.54;100.00
7050;BME280;22263;52.260;10.548;2022-08-19T04:05:27;100099.91;;;19.55;100.00
7050;BME280;22263;52.260;10.548;2022-08-19T04:07:57;100097.41;;;19.44;100.00
7050;BME280;22263;52.260;10.548;2022-08-19T04:10:30;100098.38;;;19.38;100.00
7050;BME280;22263;52.260;10.548;2022-08-19T04:12:59;100101.41;;;19.43;100.00
7050;BME280;22263;52.260;10.548;2022-08-19T04:15:29;100115.03;;;19.45;100.00
7050;BME280;22263;52.260;10.548;2022-08-19T04:18:02;100114.59;;;19.46;100.00
7050;BME280;22263;52.260;10.548;2022-08-19T04:20:32;100118.88;;;19.51;100.00
7050;BME280;22263;52.260;10.548;2022-08-19T04:23:02;100125.88;;;19.43;100.00
7050;BME280;22263;52.260;10.548;2022-08-19T04:25:40;100122.53;;;19.48;100.00
7050;BME280;22263;52.260;10.548;2022-08-19T04:28:12;100120.88;;;19.50;100.00
7050;BME280;22263;52.260;10.548;2022-08-19T04:30:46;100129.28;;;19.50;100.00
7050;BME280;22263;52.260;10.548;2022-08-19T04:33:18;100120.22;;;19.46;100.00
7050;BME280;22263;52.260;10.548;2022-08-19T04:35:54;100118.50;;;19.36;100.00
7050;BME280;22263;52.260;10.548;2022-08-19T04:38:24;100122.94;;;19.34;100.00
7050;BME280;22263;52.260;10.548;2022-08-19T04:40:57;100124.97;;;19.33;100.00
7050;BME280;22263;52.260;10.548;2022-08-19T04:43:51;100139.47;;;19.32;100.00
7050;BME280;22263;52.260;10.548;2022-08-19T04:46:20;100136.31;;;19.30;100.00
7050;BME280;22263;52.260;10.548;2022-08-19T04:49:10;100141.94;;;19.42;100.00
7050;BME280;22263;52.260;10.548;2022-08-19T04:51:42;100143.72;;;19.36;100.00
7050;BME280;22263;52.260;10.548;2022-08-19T04:54:14;100129.69;;;19.36;100.00
7050;BME280;22263;52.260;10.548;2022-08-19T04:57:07;100139.09;;;19.30;100.00
7050;BME280;22263;52.260;10.548;2022-08-19T04:59:38;100126.09;;;19.36;100.00
7050;BME280;22263;52.260;10.548;2022-08-19T05:02:08;100123.31;;;19.36;100.00
7050;BME280;22263;52.260;10.548;2022-08-19T05:04:38;100128.00;;;19.26;100.00
7050;BME280;22263;52.260;10.548;2022-08-19T05:07:08;100125.06;;;19.17;100.00
7050;BME280;22263;52.260;10.548;2022-08-19T05:09:37;100120.94;;;19.22;100.00
7050;BME280;22263;52.260;10.548;2022-08-19T05:12:27;100115.00;;;19.32;100.00
7050;BME280;22263;52.260;10.548;2022-08-19T05:14:57;100106.13;;;19.21;100.00
7050;BME280;22263;52.260;10.548;2022-08-19T05:17:27;100104.00;;;19.12;100.00
7050;BME280;22263;52.260;10.548;2022-08-19T05:20:04;100109.34;;;19.07;100.00
7050;BME280;22263;52.260;10.548;2022-08-19T05:22:47;100116.72;;;18.88;100.00
7050;BME280;22263;52.260;10.548;2022-08-19T05:25:18;100117.69;;;18.82;100.00
7050;BME280;22263;52.260;10.548;2022-08-19T05:27:50;100125.94;;;19.01;100.00
7050;BME280;22263;52.260;10.548;2022-08-19T05:33:55;100127.81;;;18.92;100.00
7050;BME280;22263;52.260;10.548;2022-08-19T05:36:25;100131.97;;;18.87;100.00
7050;BME280;22263;52.260;10.548;2022-08-19T05:38:54;100125.56;;;18.87;100.00
7050;BME280;22263;52.260;10.548;2022-08-19T05:41:24;100128.63;;;19.05;100.00
7050;BME280;22263;52.260;10.548;2022-08-19T05:44:01;100131.97;;;19.00;100.00
7050;BME280;22263;52.260;10.548;2022-08-19T05:46:32;100130.69;;;19.17;100.00
7050;BME280;22263;52.260;10.548;2022-08-19T05:49:03;100132.94;;;19.22;100.00
7050;BME280;22263;52.260;10.548;2022-08-19T05:51:34;100130.94;;;19.35;100.00
7050;BME280;22263;52.260;10.548;2022-08-19T05:54:05;100130.13;;;19.35;100.00
7050;BME280;22263;52.260;10.548;2022-08-19T05:56:35;100123.84;;;19.43;100.00
7050;BME280;22263;52.260;10.548;2022-08-19T05:59:09;100124.56;;;19.47;100.00
7050;BME280;22263;52.260;10.548;2022-08-19T06:01:41;100124.91;;;19.49;100.00
7050;BME280;22263;52.260;10.548;2022-08-19T06:04:11;100127.09;;;19.29;100.00
7050;BME280;22263;52.260;10.548;2022-08-19T06:06:45;100122.50;;;19.23;100.00
7050;BME280;22263;52.260;10.548;2022-08-19T06:09:15;100129.34;;;19.22;100.00
7050;BME280;22263;52.260;10.548;2022-08-19T06:14:58;100130.25;;;19.31;100.00
7050;BME280;22263;52.260;10.548;2022-08-19T06:17:28;100135.63;;;19.38;100.00
7050;BME280;22263;52.260;10.548;2022-08-19T06:19:58;100134.75;;;19.41;100.00
7050;BME280;22263;52.260;10.548;2022-08-19T06:22:28;100145.78;;;19.48;100.00
7050;BME280;22263;52.260;10.548;2022-08-19T06:24:57;100140.44;;;19.38;100.00
7050;BME280;22263;52.260;10.548;2022-08-19T06:27:27;100145.16;;;19.28;100.00
7050;BME280;22263;52.260;10.548;2022-08-19T06:30:01;100152.03;;;19.40;100.00
7050;BME280;22263;52.260;10.548;2022-08-19T06:32:30;100149.25;;;19.52;100.00
7050;BME280;22263;52.260;10.548;2022-08-19T06:35:00;100145.31;;;19.37;100.00
7050;BME280;22263;52.260;10.548;2022-08-19T06:37:29;100156.78;;;19.68;100.00
7050;BME280;22263;52.260;10.548;2022-08-19T06:39:59;100150.50;;;19.77;100.00
7050;BME280;22263;52.260;10.548;2022-08-19T06:42:29;100160.38;;;19.69;100.00
7050;BME280;22263;52.260;10.548;2022-08-19T06:45:03;100164.09;;;19.66;100.00
7050;BME280;22263;52.260;10.548;2022-08-19T06:47:35;100172.72;;;19.71;100.00
7050;BME280;22263;52.260;10.548;2022-08-19T06:50:05;100168.69;;;19.47;100.00
7050;BME280;22263;52.260;10.548;2022-08-19T06:52:35;100165.53;;;19.45;100.00
7050;BME280;22263;52.260;10.548;2022-08-19T06:55:07;100163.69;;;19.38;100.00
7050;BME280;22263;52.260;10.548;2022-08-19T06:57:37;100170.59;;;19.50;100.00
7050;BME280;22263;52.260;10.548;2022-08-19T07:00:10;100175.75;;;19.51;100.00
7050;BME280;22263;52.260;10.548;2022-08-19T07:02:40;100188.56;;;19.65;100.00
7050;BME280;22263;52.260;10.548;2022-08-19T07:05:21;100186.84;;;19.68;100.00
7050;BME280;22263;52.260;10.548;2022-08-19T07:07:50;100179.63;;;19.41;100.00
7050;BME280;22263;52.260;10.548;2022-08-19T07:10:24;100181.75;;;19.37;100.00
7050;BME280;22263;52.260;10.548;2022-08-19T07:12:53;100187.84;;;19.48;100.00
7050;BME280;22263;52.260;10.548;2022-08-19T07:15:25;100190.44;;;19.55;100.00
7050;BME280;22263;52.260;10.548;2022-08-19T07:17:55;100198.41;;;19.57;100.00
7050;BME280;22263;52.260;10.548;2022-08-19T07:20:25;100200.06;;;19.42;100.00
7050;BME280;22263;52.260;10.548;2022-08-19T07:22:55;100202.13;;;19.54;100.00
7050;BME280;22263;52.260;10.548;2022-08-19T07:25:25;100204.13;;;19.53;100.00
7050;BME280;22263;52.260;10.548;2022-08-19T07:27:58;100203.84;;;19.35;100.00
7050;BME280;22263;52.260;10.548;2022-08-19T07:30:31;100211.63;;;19.44;100.00
7050;BME280;22263;52.260;10.548;2022-08-19T07:33:00;100212.47;;;19.70;100.00
7050;BME280;22263;52.260;10.548;2022-08-19T07:35:30;100222.19;;;19.52;100.00
7050;BME280;22263;52.260;10.548;2022-08-19T07:38:01;100222.41;;;19.45;100.00
7050;BME280;22263;52.260;10.548;2022-08-19T07:40:31;100220.28;;;19.49;100.00
7050;BME280;22263;52.260;10.548;2022-08-19T07:43:01;100228.94;;;19.55;100.00
7050;BME280;22263;52.260;10.548;2022-08-19T07:45:33;100240.72;;;19.63;100.00
7050;BME280;22263;52.260;10.548;2022-08-19T07:48:03;100236.81;;;19.60;100.00
7050;BME280;22263;52.260;10.548;2022-08-19T07:50:33;100242.97;;;19.68;100.00
7050;BME280;22263;52.260;10.548;2022-08-19T07:53:03;100251.16;;;19.62;100.00
7050;BME280;22263;52.260;10.548;2022-08-19T07:55:33;100248.22;;;19.53;100.00
7050;BME280;22263;52.260;10.548;2022-08-19T07:58:09;100249.00;;;19.53;100.00
7050;BME280;22263;52.260;10.548;2022-08-19T08:00:43;100247.72;;;19.71;100.00
7050;BME280;22263;52.260;10.548;2022-08-19T08:03:15;100252.19;;;19.68;100.00
7050;BME280;22263;52.260;10.548;2022-08-19T08:05:45;100249.38;;;19.81;100.00
7050;BME280;22263;52.260;10.548;2022-08-19T08:08:28;100253.53;;;19.76;100.00
7050;BME280;22263;52.260;10.548;2022-08-19T08:11:16;100253.88;;;19.78;100.00
7050;BME280;22263;52.260;10.548;2022-08-19T08:13:49;100248.72;;;19.77;100.00
7050;BME280;22263;52.260;10.548;2022-08-19T08:16:34;100243.66;;;19.72;100.00
7050;BME280;22263;52.260;10.548;2022-08-19T08:19:13;100252.63;;;19.67;100.00
7050;BME280;22263;52.260;10.548;2022-08-19T08:21:52;100241.75;;;19.69;100.00
7050;BME280;22263;52.260;10.548;2022-08-19T08:24:22;100242.78;;;19.75;100.00
7050;BME280;22263;52.260;10.548;2022-08-19T08:26:54;100236.56;;;19.54;100.00
7050;BME280;22263;52.260;10.548;2022-08-19T08:29:25;100234.59;;;19.39;100.00
7050;BME280;22263;52.260;10.548;2022-08-19T08:32:03;100242.31;;;19.64;100.00
7050;BME280;22263;52.260;10.548;2022-08-19T08:34:40;100240.75;;;19.88;100.00
7050;BME280;22263;52.260;10.548;2022-08-19T08:37:12;100238.72;;;20.01;100.00
7050;BME280;22263;52.260;10.548;2022-08-19T08:39:42;100241.75;;;19.81;100.00
7050;BME280;22263;52.260;10.548;2022-08-19T08:42:17;100239.28;;;19.83;100.00
7050;BME280;22263;52.260;10.548;2022-08-19T08:44:54;100235.50;;;19.90;100.00
7050;BME280;22263;52.260;10.548;2022-08-19T08:47:34;100243.22;;;20.11;100.00
7050;BME280;22263;52.260;10.548;2022-08-19T08:50:12;100242.09;;;20.34;100.00
7050;BME280;22263;52.260;10.548;2022-08-19T08:52:45;100238.06;;;20.35;100.00
7050;BME280;22263;52.260;10.548;2022-08-19T08:55:20;100245.34;;;20.45;100.00
7050;BME280;22263;52.260;10.548;2022-08-19T08:57:53;100238.59;;;20.55;100.00
7050;BME280;22263;52.260;10.548;2022-08-19T09:00:28;100236.41;;;20.37;100.00
7050;BME280;22263;52.260;10.548;2022-08-19T09:03:03;100239.69;;;20.58;100.00
7050;BME280;22263;52.260;10.548;2022-08-19T09:05:40;100230.47;;;20.70;100.00
7050;BME280;22263;52.260;10.548;2022-08-19T09:08:19;100232.34;;;20.85;100.00
7050;BME280;22263;52.260;10.548;2022-08-19T09:10:55;100230.19;;;21.11;100.00
7050;BME280;22263;52.260;10.548;2022-08-19T09:16:36;100230.13;;;21.02;100.00
7050;BME280;22263;52.260;10.548;2022-08-19T09:19:09;100232.78;;;21.18;100.00
7050;BME280;22263;52.260;10.548;2022-08-19T09:21:39;100243.28;;;21.05;100.00
7050;BME280;22263;52.260;10.548;2022-08-19T09:24:09;100246.84;;;20.84;100.00
7050;BME280;22263;52.260;10.548;2022-08-19T09:26:38;100244.84;;;21.06;100.00
7050;BME280;22263;52.260;10.548;2022-08-19T09:29:18;100245.84;;;21.12;100.00
7050;BME280;22263;52.260;10.548;2022-08-19T09:31:48;100242.81;;;21.19;100.00
7050;BME280;22263;52.260;10.548;2022-08-19T09:34:20;100257.66;;;21.07;100.00
7050;BME280;22263;52.260;10.548;2022-08-19T09:36:50;100253.25;;;21.19;100.00
7050;BME280;22263;52.260;10.548;2022-08-19T09:39:21;100256.22;;;21.03;100.00
7050;BME280;22263;52.260;10.548;2022-08-19T09:42:01;100258.56;;;21.17;100.00
7050;BME280;22263;52.260;10.548;2022-08-19T09:44:42;100253.47;;;21.24;100.00
7050;BME280;22263;52.260;10.548;2022-08-19T09:47:13;100259.28;;;21.30;100.00
7050;BME280;22263;52.260;10.548;2022-08-19T09:49:48;100261.63;;;21.31;100.00
7050;BME280;22263;52.260;10.548;2022-08-19T09:52:17;100257.13;;;21.34;100.00
7050;BME280;22263;52.260;10.548;2022-08-19T09:54:47;100250.66;;;21.24;100.00
7050;BME280;22263;52.260;10.548;2022-08-19T09:57:17;100260.16;;;21.05;100.00
7050;BME280;22263;52.260;10.548;2022-08-19T09:59:47;100255.06;;;21.13;100.00
7050;BME280;22263;52.260;10.548;2022-08-19T10:02:16;100253.94;;;21.10;100.00
7050;BME280;22263;52.260;10.548;2022-08-19T10:04:50;100254.31;;;21.34;100.00
7050;BME280;22263;52.260;10.548;2022-08-19T10:07:32;100250.19;;;21.26;100.00
7050;BME280;22263;52.260;10.548;2022-08-19T10:10:03;100250.31;;;21.44;100.00
7050;BME280;22263;52.260;10.548;2022-08-19T10:12:33;100244.69;;;21.22;100.00
7050;BME280;22263;52.260;10.548;2022-08-19T10:15:05;100239.91;;;21.32;100.00
7050;BME280;22263;52.260;10.548;2022-08-19T10:17:35;100247.63;;;21.62;100.00
7050;BME280;22263;52.260;10.548;2022-08-19T10:20:07;100235.88;;;21.64;100.00
7050;BME280;22263;52.260;10.548;2022-08-19T10:22:37;100237.69;;;21.80;100.00
7050;BME280;22263;52.260;10.548;2022-08-19T10:25:08;100231.63;;;21.81;100.00
7050;BME280;22263;52.260;10.548;2022-08-19T10:27:43;100229.38;;;22.07;100.00
7050;BME280;22263;52.260;10.548;2022-08-19T10:30:17;100224.38;;;22.02;100.00
7050;BME280;22263;52.260;10.548;2022-08-19T10:32:46;100224.31;;;22.33;100.00
7050;BME280;22263;52.260;10.548;2022-08-19T10:35:18;100229.94;;;22.24;100.00
7050;BME280;22263;52.260;10.548;2022-08-19T10:37:48;100232.53;;;22.09;100.00
7050;BME280;22263;52.260;10.548;2022-08-19T10:40:26;100232.06;;;22.01;100.00
7050;BME280;22263;52.260;10.548;2022-08-19T10:42:56;100230.03;;;21.80;100.00
7050;BME280;22263;52.260;10.548;2022-08-19T10:45:25;100229.84;;;21.96;100.00
7050;BME280;22263;52.260;10.548;2022-08-19T10:47:55;100226.69;;;21.94;100.00
7050;BME280;22263;52.260;10.548;2022-08-19T10:50:27;100218.31;;;22.12;100.00
7050;BME280;22263;52.260;10.548;2022-08-19T10:53:18;100212.84;;;21.87;100.00
7050;BME280;22263;52.260;10.548;2022-08-19T10:55:51;100217.06;;;22.13;100.00
7050;BME280;22263;52.260;10.548;2022-08-19T10:58:33;100202.72;;;22.39;100.00
7050;BME280;22263;52.260;10.548;2022-08-19T11:01:03;100199.00;;;22.60;100.00
7050;BME280;22263;52.260;10.548;2022-08-19T11:03:32;100194.63;;;22.68;100.00
7050;BME280;22263;52.260;10.548;2022-08-19T11:06:06;100193.84;;;22.68;100.00
7050;BME280;22263;52.260;10.548;2022-08-19T11:08:37;100189.28;;;22.43;100.00
7050;BME280;22263;52.260;10.548;2022-08-19T11:11:10;100192.72;;;22.56;100.00
7050;BME280;22263;52.260;10.548;2022-08-19T11:13:41;100191.50;;;22.66;100.00
7050;BME280;22263;52.260;10.548;2022-08-19T11:16:16;100190.25;;;23.03;100.00
7050;BME280;22263;52.260;10.548;2022-08-19T11:18:47;100189.47;;;23.12;100.00
7050;BME280;22263;52.260;10.548;2022-08-19T11:21:23;100183.38;;;23.04;100.00
7050;BME280;22263;52.260;10.548;2022-08-19T11:23:55;100184.94;;;23.06;100.00
7050;BME280;22263;52.260;10.548;2022-08-19T11:26:26;100182.38;;;23.35;100.00
7050;BME280;22263;52.260;10.548;2022-08-19T11:28:56;100181.94;;;23.87;100.00
7050;BME280;22263;52.260;10.548;2022-08-19T11:31:28;100175.56;;;24.02;100.00
7050;BME280;22263;52.260;10.548;2022-08-19T11:34:01;100173.47;;;24.11;100.00
7050;BME280;22263;52.260;10.548;2022-08-19T11:36:34;100178.97;;;24.62;100.00
7050;BME280;22263;52.260;10.548;2022-08-19T11:39:05;100179.59;;;24.43;100.00
7050;BME280;22263;52.260;10.548;2022-08-19T11:41:35;100179.16;;;24.59;100.00
7050;BME280;22263;52.260;10.548;2022-08-19T11:44:06;100180.28;;;25.14;100.00
7050;BME280;22263;52.260;10.548;2022-08-19T11:46:37;100169.56;;;25.63;100.00
7050;BME280;22263;52.260;10.548;2022-08-19T11:49:07;100175.06;;;26.01;100.00
7050;BME280;22263;52.260;10.548;2022-08-19T11:51:42;100178.44;;;26.20;100.00
7050;BME280;22263;52.260;10.548;2022-08-19T11:54:13;100179.97;;;26.35;100.00
7050;BME280;22263;52.260;10.548;2022-08-19T11:56:44;100188.53;;;26.06;100.00
7050;BME280;22263;52.260;10.548;2022-08-19T11:59:15;100193.81;;;25.64;100.00
7050;BME280;22263;52.260;10.548;2022-08-19T12:01:45;100183.28;;;26.34;100.00
7050;BME280;22263;52.260;10.548;2022-08-19T12:04:14;100191.84;;;26.95;100.00
7050;BME280;22263;52.260;10.548;2022-08-19T12:06:48;100193.88;;;26.54;100.00
7050;BME280;22263;52.260;10.548;2022-08-19T12:09:18;100181.25;;;26.75;100.00
7050;BME280;22263;52.260;10.548;2022-08-19T12:11:48;100169.50;;;27.91;100.00
7050;BME280;22263;52.260;10.548;2022-08-19T12:14:18;100174.03;;;27.20;100.00
7050;BME280;22263;52.260;10.548;2022-08-19T12:16:47;100174.09;;;27.25;99.11
7050;BME280;22263;52.260;10.548;2022-08-19T12:19:18;100170.09;;;28.06;95.32
7050;BME280;22263;52.260;10.548;2022-08-19T12:21:51;100174.31;;;27.79;94.72
7050;BME280;22263;52.260;10.548;2022-08-19T12:33:55;100173.44;;;29.00;84.31
7050;BME280;22263;52.260;10.548;2022-08-19T12:36:25;100173.94;;;28.99;83.81
7050;BME280;22263;52.260;10.548;2022-08-19T12:38:58;100167.84;;;28.58;86.53
7050;BME280;22263;52.260;10.548;2022-08-19T12:41:28;100177.22;;;28.22;86.99
7050;BME280;22263;52.260;10.548;2022-08-19T12:43:57;100174.91;;;28.20;91.03
7050;BME280;22263;52.260;10.548;2022-08-19T12:46:27;100178.13;;;28.50;88.28
7050;BME280;22263;52.260;10.548;2022-08-19T12:48:59;100179.50;;;28.66;89.14
7050;BME280;22263;52.260;10.548;2022-08-19T12:51:49;100170.91;;;28.49;87.97
7050;BME280;22263;52.260;10.548;2022-08-19T12:54:21;100172.56;;;27.87;92.73
7050;BME280;22263;52.260;10.548;2022-08-19T12:56:51;100170.75;;;27.53;96.08
7050;BME280;22263;52.260;10.548;2022-08-19T12:59:20;100173.53;;;27.21;97.19
7050;BME280;22263;52.260;10.548;2022-08-19T13:01:49;100170.69;;;27.21;98.43
7050;BME280;22263;52.260;10.548;2022-08-19T13:04:19;100166.41;;;27.94;94.83
7050;BME280;22263;52.260;10.548;2022-08-19T13:06:48;100174.81;;;27.20;98.43
7050;BME280;22263;52.260;10.548;2022-08-19T13:09:20;100176.72;;;27.86;97.07
7050;BME280;22263;52.260;10.548;2022-08-19T13:11:50;100169.19;;;27.83;97.16
7050;BME280;22263;52.260;10.548;2022-08-19T13:14:19;100170.28;;;27.91;95.57
7050;BME280;22263;52.260;10.548;2022-08-19T13:16:48;100165.47;;;28.08;92.81
7050;BME280;22263;52.260;10.548;2022-08-19T13:19:18;100168.78;;;28.38;91.40
7050;BME280;22263;52.260;10.548;2022-08-19T13:21:50;100166.25;;;28.51;90.68
7050;BME280;22263;52.260;10.548;2022-08-19T13:24:28;100162.31;;;29.08;82.61
7050;BME280;22263;52.260;10.548;2022-08-19T13:26:59;100157.63;;;28.94;85.87
7050;BME280;22263;52.260;10.548;2022-08-19T13:29:28;100164.41;;;28.00;93.64